Time;durP1;ratioP1;P1;durP2;ratioP2;P2;SDS_P1;SDS_P2;PMS_P1;PMS_P2;Temp;Humidity;BMP_temperature;BMP_pressure;BME280_temperature;BME280_humidity;BME280_pressure;Samples;Min_cycle;Max_cycle;Signal;HPM_P1;HPM_P2
2021/12/28 00:01:54;;;;;;;18.70;13.77;;;;;;;;;;4779339;29;20051;-92
2021/12/28 00:04:20;;;;;;;21.80;13.75;;;;;;;;;;4779138;29;20051;-93
2021/12/28 00:06:46;;;;;;;21.70;14.15;;;;;;;;;;4780182;29;20054;-93
2021/12/28 00:09:20;;;;;;;24.80;15.15;;;;;;;;;;4779552;29;20137;-93
2021/12/28 00:11:46;;;;;;;19.48;14.40;;;;;;;;;;4779398;29;20051;-93
2021/12/28 00:14:12;;;;;;;21.83;12.50;;;;;;;;;;4780230;29;20096;-92
2021/12/28 00:19:23;;;;;;;20.23;13.10;;;;;;;;;;4794745;29;20493;-93
2021/12/28 00:21:49;;;;;;;25.88;13.77;;;;;;;;;;4795519;29;20067;-92
2021/12/28 00:24:15;;;;;;;21.67;14.45;;;;;;;;;;4794851;29;20057;-92
2021/12/28 00:26:41;;;;;;;23.77;14.55;;;;;;;;;;4794929;29;20065;-93
2021/12/28 00:29:07;;;;;;;21.13;12.90;;;;;;;;;;4795494;29;20047;-94
2021/12/28 00:31:33;;;;;;;23.85;14.50;;;;;;;;;;4795736;29;20107;-93
2021/12/28 00:33:59;;;;;;;23.50;14.65;;;;;;;;;;4795475;29;20143;-93
2021/12/28 00:36:25;;;;;;;23.83;14.32;;;;;;;;;;4794682;29;20054;-94
2021/12/28 00:38:52;;;;;;;22.15;13.77;;;;;;;;;;4794162;29;20058;-93
2021/12/28 00:41:18;;;;;;;24.23;14.98;;;;;;;;;;4794419;29;20047;-93
2021/12/28 00:43:44;;;;;;;25.67;14.75;;;;;;;;;;4798189;29;20524;-94
2021/12/28 00:46:10;;;;;;;26.45;14.90;;;;;;;;;;4798725;29;20467;-93
2021/12/28 00:48:37;;;;;;;26.75;15.70;;;;;;;;;;4798683;29;20047;-95
2021/12/28 00:51:05;;;;;;;27.20;17.17;;;;;;;;;;4799414;29;20084;-95
2021/12/28 00:53:31;;;;;;;24.67;15.70;;;;;;;;;;4799506;29;20093;-94
2021/12/28 00:55:57;;;;;;;26.60;16.52;;;;;;;;;;4799351;29;20054;-92
2021/12/28 00:58:24;;;;;;;27.42;16.00;;;;;;;;;;4793775;29;20497;-93
2021/12/28 01:00:50;;;;;;;26.25;15.93;;;;;;;;;;4793758;29;20484;-92
2021/12/28 01:03:17;;;;;;;26.17;16.52;;;;;;;;;;4793618;29;20061;-92
2021/12/28 01:05:43;;;;;;;24.67;16.63;;;;;;;;;;4793963;29;20050;-93
2021/12/28 01:08:10;;;;;;;26.73;17.10;;;;;;;;;;4793326;29;20078;-92
2021/12/28 01:10:38;;;;;;;29.30;17.60;;;;;;;;;;4792309;29;20150;-93
2021/12/28 01:13:04;;;;;;;27.45;16.17;;;;;;;;;;4794526;29;20194;-92
2021/12/28 01:15:31;;;;;;;26.10;16.30;;;;;;;;;;4793252;29;20054;-92
2021/12/28 01:17:57;;;;;;;31.70;18.00;;;;;;;;;;4791992;29;20047;-92
2021/12/28 01:20:23;;;;;;;29.55;18.60;;;;;;;;;;4791487;29;20089;-92
2021/12/28 01:22:49;;;;;;;30.55;18.02;;;;;;;;;;4791467;29;20103;-91
2021/12/28 01:25:16;;;;;;;37.67;20.13;;;;;;;;;;4791668;29;20055;-92
2021/12/28 01:27:42;;;;;;;32.70;18.90;;;;;;;;;;4791377;29;20454;-93
2021/12/28 01:30:09;;;;;;;40.05;19.83;;;;;;;;;;4791282;29;20047;-93
2021/12/28 01:32:36;;;;;;;37.83;20.70;;;;;;;;;;4791333;29;20097;-91
2021/12/28 01:35:02;;;;;;;43.78;22.05;;;;;;;;;;4791751;29;20042;-92
2021/12/28 01:37:28;;;;;;;56.13;24.80;;;;;;;;;;4791993;29;20055;-92
2021/12/28 01:39:54;;;;;;;50.55;23.55;;;;;;;;;;4791579;29;20051;-92
2021/12/28 01:42:20;;;;;;;64.80;24.85;;;;;;;;;;4792331;29;20077;-94
2021/12/28 01:44:46;;;;;;;51.58;24.30;;;;;;;;;;4792396;29;20058;-93
2021/12/28 01:47:15;;;;;;;55.13;25.83;;;;;;;;;;4791755;29;20043;-94
2021/12/28 01:49:42;;;;;;;75.60;28.60;;;;;;;;;;4791857;29;20382;-94
2021/12/28 01:52:08;;;;;;;57.38;26.48;;;;;;;;;;4793241;29;20055;-92
2021/12/28 01:54:34;;;;;;;113.05;36.25;;;;;;;;;;4795206;29;20145;-94
2021/12/28 01:57:00;;;;;;;70.82;29.75;;;;;;;;;;4794991;29;20109;-94
2021/12/28 01:59:26;;;;;;;72.18;31.65;;;;;;;;;;4795287;29;20107;-94
2021/12/28 02:01:52;;;;;;;72.18;32.60;;;;;;;;;;4795096;29;20047;-94
2021/12/28 02:04:20;;;;;;;88.28;35.20;;;;;;;;;;4794429;29;20058;-95
2021/12/28 02:06:46;;;;;;;98.25;36.88;;;;;;;;;;4795199;29;20070;-94
2021/12/28 02:09:12;;;;;;;130.32;42.17;;;;;;;;;;4795161;29;20047;-94
2021/12/28 02:11:39;;;;;;;117.03;37.97;;;;;;;;;;4795187;29;20051;-94
2021/12/28 02:14:08;;;;;;;135.27;42.55;;;;;;;;;;4795183;29;20114;-95
2021/12/28 02:16:35;;;;;;;142.55;40.50;;;;;;;;;;4795069;29;20053;-94
2021/12/28 02:19:03;;;;;;;151.30;45.15;;;;;;;;;;4794462;29;20050;-94
2021/12/28 02:21:32;;;;;;;126.90;42.55;;;;;;;;;;4795279;29;20051;-94
2021/12/28 02:23:59;;;;;;;164.35;46.20;;;;;;;;;;4794321;29;20069;-93
2021/12/28 02:26:26;;;;;;;216.30;50.92;;;;;;;;;;4795646;29;20050;-94
2021/12/28 02:28:52;;;;;;;247.82;59.92;;;;;;;;;;4795061;29;20108;-94
2021/12/28 02:31:18;;;;;;;246.05;56.78;;;;;;;;;;4794059;29;20055;-93
2021/12/28 02:33:46;;;;;;;186.32;47.05;;;;;;;;;;4794496;29;20291;-94
2021/12/28 02:36:12;;;;;;;183.88;47.53;;;;;;;;;;4795637;29;20121;-94
2021/12/28 02:38:39;;;;;;;136.13;42.45;;;;;;;;;;4793821;29;20097;-94
2021/12/28 02:41:09;;;;;;;159.55;44.72;;;;;;;;;;4794435;29;20055;-94
2021/12/28 02:43:35;;;;;;;191.73;50.90;;;;;;;;;;4794572;29;20065;-95
2021/12/28 02:46:02;;;;;;;156.18;46.45;;;;;;;;;;4794887;29;20105;-94
2021/12/28 02:48:29;;;;;;;130.43;40.58;;;;;;;;;;4794355;29;20078;-94
2021/12/28 02:50:58;;;;;;;112.07;37.75;;;;;;;;;;4795441;29;20122;-95
2021/12/28 02:53:24;;;;;;;240.10;60.78;;;;;;;;;;4794371;29;20070;-94
2021/12/28 02:55:51;;;;;;;150.27;43.42;;;;;;;;;;4794660;29;20094;-93
2021/12/28 02:58:26;;;;;;;142.35;43.33;;;;;;;;;;4793946;29;20058;-93
2021/12/28 03:01:19;;;;;;;226.45;52.88;;;;;;;;;;4793572;29;20502;-94
2021/12/28 03:03:47;;;;;;;147.98;42.70;;;;;;;;;;4771267;29;20066;-95
2021/12/28 03:06:15;;;;;;;207.85;52.05;;;;;;;;;;4794070;29;20142;-93
2021/12/28 03:08:43;;;;;;;190.32;46.67;;;;;;;;;;4793717;29;20169;-96
2021/12/28 03:11:10;;;;;;;153.65;46.05;;;;;;;;;;4794464;29;20051;-94
2021/12/28 03:13:38;;;;;;;216.43;52.85;;;;;;;;;;4794408;29;20413;-94
2021/12/28 03:16:04;;;;;;;188.35;48.83;;;;;;;;;;4793878;29;20140;-95
2021/12/28 03:18:30;;;;;;;209.68;50.80;;;;;;;;;;4793473;29;20082;-93
2021/12/28 03:20:58;;;;;;;151.80;42.10;;;;;;;;;;4794429;29;20046;-95
2021/12/28 03:23:24;;;;;;;170.40;46.70;;;;;;;;;;4794745;29;20054;-95
2021/12/28 03:25:51;;;;;;;154.88;45.72;;;;;;;;;;4794820;29;20046;-95
2021/12/28 03:28:17;;;;;;;225.27;52.53;;;;;;;;;;4795515;29;20092;-96
2021/12/28 03:30:44;;;;;;;147.68;45.03;;;;;;;;;;4795957;29;20465;-94
2021/12/28 03:33:10;;;;;;;131.38;42.97;;;;;;;;;;4794171;29;20089;-96
2021/12/28 03:35:39;;;;;;;197.38;51.70;;;;;;;;;;4793452;29;20569;-95
2021/12/28 03:38:06;;;;;;;135.88;44.35;;;;;;;;;;4794460;29;20055;-95
2021/12/28 03:40:35;;;;;;;181.85;49.20;;;;;;;;;;4793757;29;20067;-96
2021/12/28 03:43:01;;;;;;;155.73;46.63;;;;;;;;;;4794023;29;20047;-96
2021/12/28 03:45:27;;;;;;;146.20;46.00;;;;;;;;;;4793613;29;20050;-93
2021/12/28 03:47:53;;;;;;;180.35;49.90;;;;;;;;;;4794428;29;20058;-95
2021/12/28 03:50:19;;;;;;;185.98;48.22;;;;;;;;;;4793891;29;20113;-96
2021/12/28 03:52:46;;;;;;;142.55;42.85;;;;;;;;;;4794712;29;20485;-96
2021/12/28 03:55:13;;;;;;;186.52;48.50;;;;;;;;;;4793924;29;20057;-96
2021/12/28 03:57:39;;;;;;;133.73;44.17;;;;;;;;;;4793680;29;20088;-96
2021/12/28 04:00:10;;;;;;;199.90;53.38;;;;;;;;;;4793774;29;20067;-95
2021/12/28 04:02:36;;;;;;;164.80;48.42;;;;;;;;;;4788101;29;20066;-95
2021/12/28 04:05:02;;;;;;;187.68;50.30;;;;;;;;;;4795291;29;20054;-96
2021/12/28 04:07:29;;;;;;;169.55;48.15;;;;;;;;;;4796819;29;20055;-95
2021/12/28 04:12:23;;;;;;;155.63;46.92;;;;;;;;;;4795799;29;20119;-96
2021/12/28 04:14:49;;;;;;;236.38;56.10;;;;;;;;;;4793320;29;20061;-96
2021/12/28 04:17:16;;;;;;;171.80;50.13;;;;;;;;;;4792844;29;20047;-95
2021/12/28 04:19:42;;;;;;;173.93;49.10;;;;;;;;;;4793343;29;20512;-96
2021/12/28 04:22:08;;;;;;;142.25;43.50;;;;;;;;;;4792013;29;20047;-96
2021/12/28 04:24:34;;;;;;;111.80;40.25;;;;;;;;;;4793846;29;20073;-96
2021/12/28 04:27:00;;;;;;;184.95;50.83;;;;;;;;;;4796174;29;20039;-95
2021/12/28 04:29:26;;;;;;;120.22;41.28;;;;;;;;;;4799377;29;20057;-96
2021/12/28 04:31:53;;;;;;;134.07;41.13;;;;;;;;;;4792967;29;20050;-96
2021/12/28 04:34:19;;;;;;;226.75;53.10;;;;;;;;;;4792791;29;20050;-96
2021/12/28 04:36:47;;;;;;;373.50;73.07;;;;;;;;;;4794824;29;20059;-96
2021/12/28 04:39:16;;;;;;;247.75;53.80;;;;;;;;;;4801236;29;20058;-96
2021/12/28 04:41:43;;;;;;;171.90;47.28;;;;;;;;;;4803356;29;20134;-96
2021/12/28 04:44:12;;;;;;;335.00;71.85;;;;;;;;;;4794381;29;20054;-96
2021/12/28 04:46:38;;;;;;;234.25;51.20;;;;;;;;;;4794186;29;20539;-96
2021/12/28 04:49:05;;;;;;;422.10;78.93;;;;;;;;;;4794796;29;20137;-96
2021/12/28 04:51:31;;;;;;;188.77;46.75;;;;;;;;;;4797421;29;20516;-96
2021/12/28 04:54:06;;;;;;;134.65;42.45;;;;;;;;;;4798642;29;20047;-96
2021/12/28 04:56:33;;;;;;;217.63;52.35;;;;;;;;;;4799676;29;20051;-96
2021/12/28 04:59:00;;;;;;;229.48;54.50;;;;;;;;;;4813277;29;20076;-94
2021/12/28 05:01:41;;;;;;;188.00;49.88;;;;;;;;;;4826022;29;20077;-93
2021/12/28 05:04:21;;;;;;;239.32;54.72;;;;;;;;;;4811353;29;20046;-96
2021/12/28 05:07:22;;;;;;;;;;;;;;;;;;;;;
2021/12/28 05:09:51;;;;;;;157.00;44.40;;;;;;;;;;4764255;30;20114;-96
2021/12/28 05:12:17;;;;;;;194.68;48.88;;;;;;;;;;4751211;30;20585;-96
2021/12/28 05:14:49;;;;;;;182.50;46.90;;;;;;;;;;4749554;30;20060;-95
2021/12/28 05:17:22;;;;;;;233.18;52.40;;;;;;;;;;4774002;30;20056;-95
2021/12/28 05:19:57;;;;;;;180.88;48.67;;;;;;;;;;4738952;30;20061;-95
2021/12/28 05:22:31;;;;;;;203.38;51.78;;;;;;;;;;4737024;30;20544;-94
2021/12/28 05:25:17;;;;;;;168.77;44.58;;;;;;;;;;4708321;30;20065;-95
2021/12/28 05:31:48;;;;;;;113.20;41.28;;;;;;;;;;4643626;30;20061;-95
2021/12/28 05:41:23;;;;;;;100.30;35.45;;;;;;;;;;4555730;31;20059;-95
2021/12/28 05:44:17;;;;;;;109.88;38.17;;;;;;;;;;4555046;31;20503;-95
2021/12/28 05:47:21;;;;;;;;;;;;;;;;;;;;;
2021/12/28 09:54:15;;;;;;;;;;;;;;;;;;;;;
2021/12/28 10:15:06;;;;;;;22.80;11.63;;;;;;;;;;6230394;23;20025;-94
2021/12/28 10:17:52;;;;;;;18.23;9.10;;;;;;;;;;6028049;23;20097;-94
2021/12/28 10:21:27;;;;;;;;;;;;;;;;;;;;;
2021/12/28 10:23:59;;;;;;;26.93;10.67;;;;;;;;;;6042980;23;20525;-95
2021/12/28 10:26:26;;;;;;;19.63;10.43;;;;;;;;;;6021315;23;20106;-94
2021/12/28 10:28:54;;;;;;;18.38;9.48;;;;;;;;;;6020918;23;20034;-95
2021/12/28 10:31:23;;;;;;;21.67;10.60;;;;;;;;;;6067945;23;20019;-94
2021/12/28 10:33:54;;;;;;;27.13;11.73;;;;;;;;;;6021711;23;20438;-96
2021/12/28 10:36:23;;;;;;;27.10;11.50;;;;;;;;;;6021800;23;20067;-95
2021/12/28 10:38:50;;;;;;;18.35;9.27;;;;;;;;;;6022511;23;20154;-96
2021/12/28 10:41:18;;;;;;;23.60;10.48;;;;;;;;;;6069734;23;20058;-96
2021/12/28 10:43:46;;;;;;;21.25;10.50;;;;;;;;;;6023272;23;20449;-95
2021/12/28 10:46:14;;;;;;;27.55;11.07;;;;;;;;;;6023997;23;20054;-95
2021/12/28 10:48:48;;;;;;;22.80;12.40;;;;;;;;;;6024029;23;20027;-95
2021/12/28 10:51:18;;;;;;;26.73;9.73;;;;;;;;;;6023713;23;20114;-95
2021/12/28 10:56:41;;;;;;;16.80;8.32;;;;;;;;;;6164486;23;20096;-94
2021/12/28 10:59:10;;;;;;;25.08;9.05;;;;;;;;;;6139952;23;20028;-96
2021/12/28 11:01:38;;;;;;;20.38;8.73;;;;;;;;;;6138946;23;20343;-95
2021/12/28 11:04:10;;;;;;;16.75;9.82;;;;;;;;;;6138984;23;20140;-96
2021/12/28 11:06:37;;;;;;;20.35;8.95;;;;;;;;;;6140509;23;20330;-96
2021/12/28 11:09:03;;;;;;;13.95;7.95;;;;;;;;;;6140370;23;20343;-95
2021/12/28 11:11:30;;;;;;;19.70;8.85;;;;;;;;;;6139400;23;20017;-95
2021/12/28 11:13:57;;;;;;;14.80;8.30;;;;;;;;;;6134510;23;20104;-94
2021/12/28 11:16:26;;;;;;;13.52;8.55;;;;;;;;;;6105367;23;20069;-95
2021/12/28 11:18:57;;;;;;;24.48;9.02;;;;;;;;;;6105741;23;20022;-94
2021/12/28 11:21:28;;;;;;;14.45;9.18;;;;;;;;;;6133915;23;20356;-95
2021/12/28 11:23:55;;;;;;;16.73;8.98;;;;;;;;;;6135771;23;20025;-94
2021/12/28 11:26:24;;;;;;;11.80;8.32;;;;;;;;;;6135091;23;20018;-93
2021/12/28 11:29:05;;;;;;;16.60;8.10;;;;;;;;;;6133960;23;20022;-94
2021/12/28 11:31:37;;;;;;;14.95;7.47;;;;;;;;;;6110573;23;20018;-94
2021/12/28 11:34:03;;;;;;;11.80;7.75;;;;;;;;;;6110897;23;20030;-96
2021/12/28 11:36:53;;;;;;;13.65;7.38;;;;;;;;;;6136172;23;20017;-95
2021/12/28 11:39:21;;;;;;;14.15;7.10;;;;;;;;;;6111861;23;20018;-95
2021/12/28 11:41:48;;;;;;;15.43;8.50;;;;;;;;;;6110033;23;20434;-94
2021/12/28 11:44:18;;;;;;;18.48;9.00;;;;;;;;;;6110928;23;20100;-95
2021/12/28 11:46:44;;;;;;;11.23;7.05;;;;;;;;;;6109874;23;20428;-94
2021/12/28 11:49:12;;;;;;;14.50;8.45;;;;;;;;;;6133454;23;20018;-95
2021/12/28 11:51:39;;;;;;;11.25;7.03;;;;;;;;;;6135184;23;20025;-93
2021/12/28 11:54:08;;;;;;;11.35;7.82;;;;;;;;;;6134138;23;20021;-93
2021/12/28 11:56:38;;;;;;;10.05;7.03;;;;;;;;;;6135061;23;20076;-95
2021/12/28 11:59:06;;;;;;;7.90;5.70;;;;;;;;;;6110310;23;20025;-96
2021/12/28 12:01:50;;;;;;;14.55;7.70;;;;;;;;;;6132900;23;20021;-93
2021/12/28 12:04:32;;;;;;;8.57;5.90;;;;;;;;;;6122243;23;20459;-94
2021/12/28 12:07:05;;;;;;;8.75;5.72;;;;;;;;;;6109071;23;20064;-95
2021/12/28 12:09:32;;;;;;;12.43;7.68;;;;;;;;;;6110396;23;20021;-94
2021/12/28 12:12:10;;;;;;;8.68;6.43;;;;;;;;;;6109290;23;20451;-96
2021/12/28 12:14:54;;;;;;;9.05;6.45;;;;;;;;;;6133392;23;20331;-95
2021/12/28 12:17:29;;;;;;;10.50;7.20;;;;;;;;;;6110376;23;20021;-95
2021/12/28 12:19:56;;;;;;;15.38;7.28;;;;;;;;;;6134088;23;20333;-95
2021/12/28 12:22:31;;;;;;;11.32;7.03;;;;;;;;;;6133416;23;20029;-94
2021/12/28 12:25:04;;;;;;;11.23;7.13;;;;;;;;;;6129549;23;20022;-94
2021/12/28 12:27:49;;;;;;;10.95;7.90;;;;;;;;;;6132945;23;20021;-96
2021/12/28 12:30:18;;;;;;;8.50;6.20;;;;;;;;;;6138227;23;20084;-95
2021/12/28 12:33:06;;;;;;;8.75;6.70;;;;;;;;;;6134681;23;20025;-95
2021/12/28 12:35:50;;;;;;;;;;;;;;;;;;;;;
2021/12/28 12:38:16;;;;;;;;;;;;;;;;;;6166218;23;20049;-94
2021/12/28 12:41:02;;;;;;;8.13;5.82;;;;;;;;;;6143469;23;19923;-96
2021/12/28 12:43:58;;;;;;;9.27;6.70;;;;;;;;;;6142162;23;20025;-93
2021/12/28 12:46:25;;;;;;;11.45;8.48;;;;;;;;;;6050635;23;20417;-95
2021/12/28 12:48:54;;;;;;;13.43;7.85;;;;;;;;;;6049283;23;20022;-95
2021/12/28 12:51:27;;;;;;;11.05;7.00;;;;;;;;;;6047765;23;20026;-93
2021/12/28 12:54:00;;;;;;;14.13;8.15;;;;;;;;;;6046378;23;20540;-93
2021/12/28 12:56:28;;;;;;;8.05;6.63;;;;;;;;;;6046833;23;20047;-95
2021/12/28 12:59:01;;;;;;;9.50;7.43;;;;;;;;;;6046004;23;20031;-94
2021/12/28 13:01:27;;;;;;;7.35;5.93;;;;;;;;;;6045933;23;20100;-94
2021/12/28 13:03:54;;;;;;;7.22;6.15;;;;;;;;;;6046492;23;20145;-93
2021/12/28 13:06:38;;;;;;;13.95;8.23;;;;;;;;;;6045680;23;20019;-94
2021/12/28 13:09:05;;;;;;;10.75;7.25;;;;;;;;;;6045277;23;20023;-95
2021/12/28 13:11:32;;;;;;;13.23;7.90;;;;;;;;;;6045949;23;20101;-94
2021/12/28 13:13:58;;;;;;;7.90;6.55;;;;;;;;;;6041000;23;20030;-95
2021/12/28 13:16:24;;;;;;;8.90;7.00;;;;;;;;;;6042479;23;20572;-93
2021/12/28 13:18:50;;;;;;;9.13;6.65;;;;;;;;;;6018290;23;20405;-95
2021/12/28 13:21:20;;;;;;;10.77;7.15;;;;;;;;;;6018200;23;20082;-94
2021/12/28 13:24:08;;;;;;;10.45;6.88;;;8.00;99.90;;;;;;6115267;23;20065;-94
2021/12/28 13:26:42;;;;;;;7.53;6.60;;;;;;;;;;6128272;23;20022;-95
2021/12/28 13:29:08;;;;;;;8.82;7.25;;;;;;;;;;6106864;23;20021;-93
2021/12/28 13:31:34;;;;;;;10.35;6.97;;;;;;;;;;6108877;23;20025;-94
2021/12/28 13:34:04;;;;;;;10.07;7.32;;;;;;;;;;6108457;23;20021;-93
2021/12/28 13:36:33;;;;;;;13.25;8.15;;;;;;;;;;6109070;23;20057;-93
2021/12/28 13:39:04;;;;;;;11.57;8.13;;;;;;;;;;6133295;23;20032;-94
2021/12/28 13:41:31;;;;;;;8.73;7.57;;;;;;;;;;6108553;23;20022;-93
2021/12/28 13:44:03;;;;;;;7.72;6.88;;;;;;;;;;6107704;23;20021;-96
2021/12/28 13:46:29;;;;;;;9.65;6.60;;;;;;;;;;6108080;23;20021;-94
2021/12/28 13:48:55;;;;;;;8.88;6.35;;;;;;;;;;6109640;23;20080;-93
2021/12/28 13:51:22;;;;;;;11.05;6.20;;;;;;;;;;6110786;23;20068;-93
2021/12/28 13:53:49;;;;;;;11.88;7.43;;;;;;;;;;6109200;23;20026;-93
2021/12/28 13:56:19;;;;;;;11.75;7.60;;;;;;;;;;6108797;23;20018;-94
2021/12/28 13:58:47;;;;;;;8.55;6.60;;;;;;;;;;6109139;23;20021;-93
2021/12/28 14:01:24;;;;;;;8.57;7.45;;;;;;;;;;6108549;23;20025;-93
2021/12/28 14:04:06;;;;;;;10.75;7.47;;;;;;;;;;6109067;23;20101;-94
2021/12/28 14:06:34;;;;;;;11.73;7.78;;;;;;;;;;6108771;23;20347;-93
2021/12/28 14:09:03;;;;;;;12.68;7.60;;;;;;;;;;6109905;23;20021;-94
2021/12/28 14:11:34;;;;;;;9.63;7.82;;;;;;;;;;6108687;23;20169;-95
2021/12/28 14:14:01;;;;;;;14.70;8.25;;;;;;;;;;6127121;23;20018;-94
2021/12/28 14:16:29;;;;;;;10.55;7.88;;;;;;;;;;6110067;23;20072;-93
2021/12/28 14:18:55;;;;;;;9.90;8.25;;;;;;;;;;6110023;23;20482;-93
2021/12/28 14:21:27;;;;;;;12.68;8.90;;;;;;;;;;6110093;23;20029;-93
2021/12/28 14:24:02;;;;;;;15.50;9.05;;;;;;;;;;6110721;23;20029;-93
2021/12/28 14:26:41;;;;;;;13.98;9.38;;;;;;;;;;6110848;23;20092;-93
2021/12/28 14:29:11;;;;;;;17.05;9.30;;;;;;;;;;6111336;23;20025;-93
2021/12/28 14:31:42;;;;;;;7.82;5.68;;;;;;;;;;6111319;23;20491;-94
2021/12/28 14:34:10;;;;;;;5.85;4.80;;;;;;;;;;6111131;23;20452;-92
2021/12/28 14:36:49;;;;;;;4.78;4.28;;;;;;;;;;6109655;23;20332;-93
2021/12/28 14:39:21;;;;;;;6.80;4.32;;;;;;;;;;6109793;23;20040;-93
2021/12/28 14:41:49;;;;;;;5.15;3.85;;;;;;;;;;6110522;23;20057;-93
2021/12/28 14:44:23;;;;;;;4.30;3.08;;;;;;;;;;6111554;23;20467;-94
2021/12/28 14:46:58;;;;;;;3.53;2.50;;;;;;;;;;6111991;23;20033;-96
2021/12/28 14:49:54;;;;;;;2.75;2.17;;;;;;;;;;6112842;23;20024;-95
2021/12/28 15:00:09;;;;;;;;;;;;;;;;;;;;;
2021/12/28 15:06:23;;;;;;;;;;;;;;;;;;;;;
2021/12/28 15:27:16;;;;;;;;;;;;;;;;;;;;;
2021/12/28 15:41:23;;;;;;;14.20;3.75;;;8.00;99.90;;;;;;6133873;22;1398666;31
2021/12/28 15:52:44;;;;;;;14.07;3.88;;;;;;;;;;5865393;24;20034;-92
2021/12/28 15:55:14;;;;;;;12.68;4.38;;;;;;;;;;5813268;24;20034;-95
2021/12/28 16:01:00;;;;;;;8.43;4.57;;;;;;;;;;5781935;24;20488;-93
2021/12/28 16:03:44;;;;;;;12.95;4.82;;;;;;;;;;5781162;24;20026;-94
2021/12/28 16:06:19;;;;;;;8.40;4.85;;;;;;;;;;5783444;24;20365;-95
2021/12/28 16:08:49;;;;;;;22.17;5.85;;;;;;;;;;5782557;24;20034;-93
2021/12/28 16:11:16;;;;;;;15.57;4.63;;;;;;;;;;5779646;24;20132;-93
2021/12/28 16:13:42;;;;;;;11.45;4.93;;;;;;;;;;5778756;24;20019;-94
2021/12/28 16:16:11;;;;;;;17.95;4.50;;;;;;;;;;5758345;24;20140;-94
2021/12/28 16:18:40;;;;;;;11.07;4.25;;;;;;;;;;5757169;24;20015;-93
2021/12/28 16:21:06;;;;;;;6.65;3.90;;;;;;;;;;5757101;24;20055;-95
2021/12/28 16:23:32;;;;;;;7.25;3.83;;;;;;;;;;5757811;24;20035;-95
2021/12/28 16:25:59;;;;;;;9.40;4.80;;;;;;;;;;5757966;24;20019;-95
2021/12/28 16:28:25;;;;;;;13.90;4.40;;;;;;;;;;5778477;24;20033;-95
2021/12/28 16:30:51;;;;;;;13.57;4.47;;;;;;;;;;6033286;23;20455;-95
2021/12/28 16:33:22;;;;;;;15.70;4.68;;;;;;;;;;6114254;23;20097;-96
2021/12/28 16:36:16;;;;;;;9.50;4.60;;;;;;;;;;6148290;23;20025;-96
2021/12/28 16:38:45;;;;;;;10.88;3.95;;;;;;;;;;6136955;23;20033;-96
2021/12/28 16:41:11;;;;;;;14.27;4.57;;;;;;;;;;6105456;23;20045;-96
2021/12/28 16:43:38;;;;;;;21.48;4.68;;;;;;;;;;6106071;23;20104;-95
2021/12/28 16:46:04;;;;;;;16.88;4.60;;;;;;;;;;6105641;23;20154;-96
2021/12/28 16:48:30;;;;;;;19.02;4.55;;;;;;;;;;6104946;23;20018;-96
2021/12/28 16:50:57;;;;;;;17.58;4.15;;;;;;;;;;6105202;23;20072;-96
2021/12/28 16:53:23;;;;;;;29.83;6.57;;;;;;;;;;6105148;23;20440;-94
2021/12/28 16:55:50;;;;;;;12.27;4.15;;;;;;;;;;6105081;23;20460;-96
2021/12/28 16:58:20;;;;;;;10.65;4.35;;;;;;;;;;6104898;23;20156;-95
2021/12/28 17:00:53;;;;;;;9.88;3.65;;;;;;;;;;6104887;23;20021;-95
2021/12/28 17:03:20;;;;;;;15.63;4.70;;;;;;;;;;6105261;23;20010;-96
2021/12/28 17:05:49;;;;;;;9.88;4.70;;;;;;;;;;6105626;23;20025;-95
2021/12/28 17:08:19;;;;;;;20.30;4.75;;;;;;;;;;6105432;23;20018;-96
2021/12/28 17:10:52;;;;;;;10.77;4.85;;;;;;;;;;6105233;23;20459;-96
2021/12/28 17:13:49;;;;;;;18.48;6.15;;;;;;;;;;6104969;23;20014;-96
2021/12/28 17:16:34;;;;;;;16.40;5.63;;;;;;;;;;5966464;23;20020;-96
2021/12/28 17:19:37;;;;;;;20.20;5.95;;;;;;;;;;5964819;23;20031;-96
2021/12/28 17:22:07;;;;;;;14.68;5.40;;;;;;;;;;5883552;24;20021;-96
2021/12/28 17:24:37;;;;;;;18.73;5.53;;;;;;;;;;5883271;24;20025;-95
2021/12/28 17:27:07;;;;;;;16.63;4.25;;;;;;;;;;5884288;24;20021;-95
2021/12/28 17:29:39;;;;;;;13.13;4.78;;;;;;;;;;5883903;24;20116;-96
2021/12/28 17:32:13;;;;;;;21.27;5.72;;;;;;;;;;5885764;24;20518;-95
2021/12/28 17:34:39;;;;;;;;;;;6.70;99.90;;;;;;5887507;24;20021;-96
2021/12/28 17:37:07;;;;;;;15.57;4.95;;;;;;;;;;5908781;24;20330;-96
2021/12/28 17:39:36;;;;;;;9.60;5.38;;;;;;;;;;5884948;24;20025;-96
2021/12/28 17:42:02;;;;;;;16.25;6.20;;;;;;;;;;5883572;24;20025;-96
2021/12/28 17:44:29;;;;;;;14.45;6.30;;;;;;;;;;5884251;24;20096;-96
2021/12/28 17:46:58;;;;;;;16.60;5.25;;;;;;;;;;5882732;24;20028;-95
2021/12/28 17:49:24;;;;;;;11.18;4.47;;;;;;;;;;5883250;24;20103;-95
2021/12/28 17:51:51;;;;;;;12.10;4.47;;;;;;;;;;5885314;24;20060;-95
2021/12/28 17:54:19;;;;;;;22.77;5.38;;;;;;;;;;5984790;24;20331;-95
2021/12/28 17:56:45;;;;;;;22.38;5.22;;;;;;;;;;5961241;24;20463;-95
2021/12/28 17:59:12;;;;;;;13.75;4.72;;;;;;;;;;6066588;23;20025;-96
2021/12/28 18:01:39;;;;;;;18.88;4.53;;;;;;;;;;6103582;23;20018;-96
2021/12/28 18:04:05;;;;;;;11.18;4.55;;;;;;;;;;6103768;23;20018;-96
2021/12/28 18:06:31;;;;;;;16.15;4.60;;;;;;;;;;6103823;23;20029;-96
2021/12/28 18:09:00;;;;;;;17.88;4.53;;;;;;;;;;6104459;23;20436;-95
2021/12/28 18:11:26;;;;;;;8.18;4.40;;;;;;;;;;6103320;23;20318;-96
2021/12/28 18:13:52;;;;;;;14.40;4.95;;;;;;;;;;6104543;23;20100;-94
2021/12/28 18:16:20;;;;;;;13.95;4.82;;;;;;;;;;6102844;23;20535;-95
2021/12/28 18:18:47;;;;;;;16.08;6.65;;;;;;;;;;6104627;23;20018;-96
2021/12/28 18:21:13;;;;;;;14.07;6.65;;;;;;;;;;6103483;23;20014;-96
2021/12/28 18:23:41;;;;;;;16.60;5.28;;;;;;;;;;6103573;23;20024;-96
2021/12/28 18:26:10;;;;;;;21.25;5.47;;;;;;;;;;6103741;23;20018;-94
2021/12/28 18:28:36;;;;;;;20.95;5.55;;;;;;;;;;6104053;23;20460;-96
2021/12/28 18:31:03;;;;;;;20.60;5.45;;;;;;;;;;6103148;23;20018;-94
2021/12/28 18:33:30;;;;;;;24.73;5.68;;;;;;;;;;6103351;23;20029;-94
2021/12/28 18:36:01;;;;;;;30.85;5.80;;;;;;;;;;6103866;23;20017;-96
2021/12/28 18:38:29;;;;;;;17.02;4.82;;;;;;;;;;6104633;23;20018;-96
2021/12/28 18:40:57;;;;;;;19.33;5.38;;;;;;;;;;6104817;23;20026;-96
2021/12/28 18:43:24;;;;;;;18.30;4.38;;;;;;;;;;6104046;23;20069;-96
2021/12/28 18:45:51;;;;;;;22.40;4.68;;;;;;;;;;6104514;23;20032;-96
2021/12/28 18:48:19;;;;;;;12.85;4.10;;;;;;;;;;6104343;23;20103;-94
2021/12/28 18:50:46;;;;;;;22.20;4.85;;;;;;;;;;6105095;23;20028;-95
2021/12/28 18:53:16;;;;;;;15.35;4.45;;;;;;;;;;6103874;23;20049;-96
2021/12/28 18:55:50;;;;;;;17.80;4.88;;;;;;;;;;6103778;23;20081;-95
2021/12/28 18:58:18;;;;;;;20.92;4.63;;;;;;;;;;6103606;23;20018;-95
2021/12/28 19:00:47;;;;;;;14.25;4.78;;;;;;;;;;6104305;23;20014;-95
2021/12/28 19:03:15;;;;;;;21.20;5.15;;;;;;;;;;6103245;23;20022;-95
2021/12/28 19:05:44;;;;;;;16.65;4.80;;;;;;;;;;6103839;23;20018;-94
2021/12/28 19:08:10;;;;;;;19.45;7.47;;;;;;;;;;6104136;23;20018;-95
2021/12/28 19:10:36;;;;;;;30.02;6.80;;;;;;;;;;6104457;23;20021;-94
2021/12/28 19:13:04;;;;;;;17.95;6.97;;;;;;;;;;6104686;23;20014;-93
2021/12/28 19:15:30;;;;;;;15.85;6.78;;;;;;;;;;6104026;23;20379;-95
2021/12/28 19:17:56;;;;;;;17.60;6.30;;;;;;;;;;6104600;23;20014;-94
2021/12/28 19:20:24;;;;;;;17.88;6.55;;;;;;;;;;6103879;23;20080;-94
2021/12/28 19:22:51;;;;;;;19.70;8.57;;;;;;;;;;6103716;23;20088;-94
2021/12/28 19:25:17;;;;;;;19.38;12.43;;;;;;;;;;6103155;23;20024;-95
2021/12/28 19:27:43;;;;;;;26.33;11.82;;;;;;;;;;6103775;23;20014;-94
2021/12/28 19:30:11;;;;;;;28.52;12.13;;;;;;;;;;6103991;23;20022;-95
2021/12/28 19:32:37;;;;;;;19.45;7.38;;;;;;;;;;6103230;23;20018;-94
2021/12/28 19:35:04;;;;;;;20.42;8.35;;;;;;;;;;6102877;23;20025;-94
2021/12/28 19:37:30;;;;;;;18.58;7.65;;;;;;;;;;6127286;23;20013;-95
2021/12/28 19:39:59;;;;;;;20.13;7.45;;;;;;;;;;6103217;23;20017;-94
2021/12/28 19:42:25;;;;;;;31.58;8.43;;;;;;;;;;6128541;23;20428;-94
2021/12/28 19:44:51;;;;;;;19.85;7.43;;;;;;;;;;6103149;23;20348;-95
2021/12/28 19:47:17;;;;;;;24.70;7.18;;;;;;;;;;6102859;23;20093;-95
2021/12/28 19:49:43;;;;;;;19.00;7.43;;;;;;;;;;6102199;23;20018;-94
2021/12/28 19:52:09;;;;;;;20.92;6.68;;;;;;;;;;6102805;23;20017;-94
2021/12/28 19:54:39;;;;;;;16.08;6.70;;;;;;;;;;6103580;23;20057;-95
2021/12/28 19:57:09;;;;;;;23.55;6.55;;;;;;;;;;6102695;23;20097;-94
2021/12/28 19:59:36;;;;;;;20.25;6.07;;;;;;;;;;6103421;23;20025;-94
2021/12/28 20:02:05;;;;;;;21.05;7.65;;;;;;;;;;6103963;23;20022;-95
2021/12/28 20:04:31;;;;;;;21.55;6.13;;;;;;;;;;6103439;23;20065;-95
2021/12/28 20:06:58;;;;;;;19.17;5.70;;;;;;;;;;6103451;23;20046;-96
2021/12/28 20:09:25;;;;;;;24.70;8.00;;;;;;;;;;6102669;23;20018;-94
2021/12/28 20:11:52;;;;;;;23.20;8.10;;;;;;;;;;6103653;23;20065;-93
2021/12/28 20:14:18;;;;;;;27.33;6.82;;;;;;;;;;6102767;23;20028;-94
2021/12/28 20:16:44;;;;;;;25.95;8.48;;;;;;;;;;6104357;23;20130;-94
2021/12/28 20:54:38;;;;;;;22.87;7.70;;;6.30;99.90;;;;;;6119199;23;20260;31
2021/12/28 21:43:55;;;;;;;46.10;12.10;;;;;;;;;;6126483;23;20030;-93